BARTON ATIS
Please check data is current before use. Last Updated 21/11/2017 13:00:10 z
H 1300 z

RWY 26R

CCT RH

M/CR QNH 1006

BARTON QFE 1004

STATUS: Airfield Open
Next Inspection: 22/11/2017
AIRFIELD CLOSES: 1604 z

UNOFFICIAL WEATHER:
Unofficial Weather EGCB 211300Z 21007KT 9999 VCSH SCT020 BKN030 13/11 Q1006
SW WINDS WITH MEAN 18KT AT TIMES AND GUSTS OF 28KT MAY OCCUR. 211200-211800Z SW WINDS WITH MEAN 15-20KT AT TIMES AND GUSTS OF 25-30KT MAY OCCUR. 211800z - 220000z

-B1, B2, B3 HOLD LINES NOT DISPLAYED
-PILOTS ARE REQUESTED NOT TO USE EXCESSIVE BRAKING ON GRASS AREAS
-PILOTS ARE REQUESTED TO AVOID THE RUNWAY CENTRELINE TO REDUCE WEAR.
-CAUTION INCREASED BIRD ACTIVITY
-B3 HOLDING POINT CLOSED

** PILOTS MUST USE THE NORTHERN SIDE OF RUNWAY 08L/26R DUE SFC CONDITIONS **
Wind Trend Information:
(updated 24hrs, every 5 minutes)
 
TOUCH AND GO STATUS:
One take-off/landing per detail

08L/26R - Firm / Water Patches - See Notes
08R/26L - Soft / Wet
14/32 - Closed due Surface Conditions
02/20 - Closed due Surface Conditions